Impacts METAR Board INFO
IDs:

KCLE - Cleveland/Hopkins In, OH, US

Updated at: 1322 UTC 19 Jan 2018
Potential Impact None Slight Moderate High
Time19/01Z 19/02Z 19/03Z 19/04Z 19/05Z 19/06Z 19/07Z 19/08Z 19/09Z 19/10Z 19/11Z 19/12Z 19/13Z
VIS10 10 10 10 10 10 10 10 10 10 10 10 10
CIG-- -- -- -- -- -- -- -- -- -- -- -- --
CoverCLRCLRCLRCLRCLRCLRCLRCLRCLRCLRFEWFEWCLR
FltCatVFRVFRVFRVFRVFRVFRVFRVFRVFRVFRVFRVFRVFR
WX--------------------------
WDir200200200200200230230200220210200200200
WSpd15 16 14 12 12 11 12 13 14 11 9 8 8
WGst20 -- 21 -- -- -- 20 21 23 -- -- -- --
Raw hourly METARs
KCLE 190051Z 20015G20KT 10SM CLR M02/M11 A3010 RMK AO2 PK WND 23030/2357 SLP203 T10171106
KCLE 190151Z 20016KT 10SM CLR M02/M11 A3008 RMK AO2 SLP198 T10221106
KCLE 190251Z 20014G21KT 10SM CLR M03/M11 A3007 RMK AO2 SLP193 T10281106 58012
KCLE 190351Z 20012KT 10SM CLR M03/M11 A3007 RMK AO2 SLP192 T10281106
KCLE 190451Z 20012KT 10SM CLR M03/M11 A3006 RMK AO2 SLP188 T10281106 410061100
KCLE 190551Z 23011KT 10SM CLR M02/M11 A3005 RMK AO2 SLP185 4/002 T10171106 11006 21028 58006
KCLE 190651Z 23012G20KT 10SM CLR M02/M11 A3006 RMK AO2 PK WND 22027/0616 SLP188 T10171106
KCLE 190751Z 20013G21KT 10SM CLR M02/M11 A3006 RMK AO2 SLP189 T10221106
KCLE 190851Z 22014G23KT 10SM CLR M02/M11 A3005 RMK AO2 SLP186 T10221106 50000
KCLE 190951Z 21011KT 10SM CLR M02/M11 A3005 RMK AO2 SLP186 T10221106
KCLE 191051Z 20009KT 10SM FEW250 M04/M11 A3007 RMK AO2 SLP193 T10391111
KCLE 191151Z 20008KT 10SM FEW250 M04/M11 A3007 RMK AO2 SLP191 4/002 T10441111 11017 21044 50005
KCLE 191251Z 20008KT 10SM CLR M05/M11 A3006 RMK AO2 SLP191 T10501111